createdAt,value
2022-10-17T00:00:37.954Z,12.27
2022-10-17T00:03:27.258Z,12.20
2022-10-17T00:05:55.227Z,12.09
2022-10-17T00:08:23.231Z,12.13
2022-10-17T00:10:58.394Z,12.03
2022-10-17T00:13:27.453Z,11.94
2022-10-17T00:15:55.501Z,11.92
2022-10-17T00:18:23.574Z,11.93
2022-10-17T00:20:53.238Z,11.97
2022-10-17T00:23:21.389Z,12.13
2022-10-17T00:25:49.151Z,12.00
2022-10-17T00:28:17.362Z,11.95
2022-10-17T00:30:45.102Z,11.92
2022-10-17T00:33:13.074Z,11.87
2022-10-17T00:35:40.920Z,11.90
2022-10-17T00:38:10.163Z,11.99
2022-10-17T00:40:38.042Z,12.11
2022-10-17T00:43:07.364Z,12.02
2022-10-17T00:45:35.115Z,11.91
2022-10-17T00:48:08.443Z,11.88
2022-10-17T00:50:39.678Z,11.88
2022-10-17T00:53:10.603Z,11.87
2022-10-17T00:55:43.274Z,11.82
2022-10-17T00:58:11.836Z,11.73
2022-10-17T01:00:39.797Z,11.72
2022-10-17T01:03:07.838Z,11.70
2022-10-17T01:05:35.859Z,11.71
2022-10-17T01:08:04.148Z,11.72
2022-10-17T01:10:41.575Z,11.69
2022-10-17T01:13:15.338Z,11.89
2022-10-17T01:15:53.497Z,11.95
2022-10-17T01:18:33.609Z,11.85
2022-10-17T01:21:22.753Z,11.79
2022-10-17T01:24:20.571Z,11.79
2022-10-17T01:27:19.265Z,11.73
2022-10-17T01:30:00.656Z,11.64
2022-10-17T01:32:35.446Z,11.55
2022-10-17T01:35:11.284Z,11.55
2022-10-17T01:37:45.028Z,11.57
2022-10-17T01:40:21.269Z,11.67
2022-10-17T01:42:56.656Z,11.56
2022-10-17T01:45:33.306Z,11.48
2022-10-17T01:48:08.010Z,11.47
2022-10-17T01:50:42.245Z,11.45
2022-10-17T01:53:15.650Z,11.49
2022-10-17T01:55:47.155Z,11.58
2022-10-17T01:58:20.261Z,11.61
2022-10-17T02:00:49.547Z,11.69
2022-10-17T02:03:21.592Z,11.67
2022-10-17T02:05:49.644Z,11.42
2022-10-17T02:08:26.882Z,11.23
2022-10-17T02:10:59.101Z,11.19
2022-10-17T02:13:41.910Z,11.13
2022-10-17T02:16:20.815Z,11.05
2022-10-17T02:19:02.176Z,11.04
2022-10-17T02:21:40.942Z,11.10
2022-10-17T02:24:16.818Z,11.30
2022-10-17T02:26:51.455Z,11.36
2022-10-17T02:29:22.765Z,11.40
2022-10-17T02:31:55.656Z,11.43
2022-10-17T02:34:28.881Z,11.20
2022-10-17T02:37:01.229Z,11.08
2022-10-17T02:39:31.032Z,11.13
2022-10-17T02:42:02.785Z,11.17
2022-10-17T02:44:33.424Z,11.09
2022-10-17T02:47:08.397Z,10.84
2022-10-17T02:49:41.639Z,10.91
2022-10-17T02:52:15.255Z,10.86
2022-10-17T02:54:46.974Z,10.79
2022-10-17T02:57:19.604Z,10.79
2022-10-17T02:59:48.625Z,10.82
2022-10-17T03:02:16.638Z,10.76
2022-10-17T03:04:46.789Z,10.87
2022-10-17T03:07:14.924Z,11.01
2022-10-17T03:09:42.716Z,10.98
2022-10-17T03:12:10.769Z,10.90
2022-10-17T03:14:38.573Z,10.98
2022-10-17T03:17:06.829Z,10.93
2022-10-17T03:19:34.538Z,10.89
2022-10-17T03:22:03.767Z,10.92
2022-10-17T03:24:31.677Z,11.00
2022-10-17T03:26:59.562Z,10.98
2022-10-17T03:29:27.297Z,10.99
2022-10-17T03:31:55.445Z,10.90
2022-10-17T03:34:23.258Z,10.91
2022-10-17T03:36:51.317Z,10.82
2022-10-17T03:39:20.483Z,10.70
2022-10-17T03:41:48.378Z,10.54
2022-10-17T03:44:16.706Z,10.47
2022-10-17T03:46:44.747Z,10.50
2022-10-17T03:49:12.642Z,10.37
2022-10-17T03:51:40.549Z,10.47
2022-10-17T03:54:08.441Z,10.53
2022-10-17T03:56:37.740Z,10.53
2022-10-17T03:59:05.673Z,10.36
2022-10-17T04:01:33.671Z,10.31
2022-10-17T04:04:01.706Z,10.23
2022-10-17T04:06:29.777Z,10.27
2022-10-17T04:08:57.687Z,10.31
2022-10-17T04:11:25.672Z,10.35
2022-10-17T04:13:56.446Z,10.39
2022-10-17T04:16:24.845Z,10.36
2022-10-17T04:18:55.361Z,10.34
2022-10-17T04:21:24.639Z,10.33
2022-10-17T04:23:55.439Z,10.26
2022-10-17T04:26:23.650Z,10.36
2022-10-17T04:28:51.984Z,10.49
2022-10-17T04:31:21.364Z,10.44
2022-10-17T04:33:50.829Z,10.30
2022-10-17T04:36:20.877Z,10.15
2022-10-17T04:38:48.749Z,10.05
2022-10-17T04:41:18.559Z,10.01
2022-10-17T04:43:50.140Z,9.99
2022-10-17T04:46:20.943Z,9.95
2022-10-17T04:48:48.670Z,9.90
2022-10-17T04:51:20.686Z,9.92
2022-10-17T04:53:51.114Z,9.93
2022-10-17T04:56:21.744Z,9.92
2022-10-17T04:58:50.065Z,10.00
2022-10-17T05:01:19.954Z,10.01
2022-10-17T05:03:49.432Z,9.94
2022-10-17T05:06:19.498Z,10.05
2022-10-17T05:08:47.731Z,10.13
2022-10-17T05:11:20.465Z,10.10
2022-10-17T05:13:52.097Z,10.07
2022-10-17T05:16:20.459Z,10.20
2022-10-17T05:18:52.933Z,10.45
2022-10-17T05:21:22.797Z,10.45
2022-10-17T05:23:50.901Z,10.28
2022-10-17T05:26:19.487Z,10.34
2022-10-17T05:28:47.854Z,10.28
2022-10-17T05:31:16.036Z,10.23
2022-10-17T05:33:43.796Z,10.22
2022-10-17T05:36:13.109Z,10.13
2022-10-17T05:38:40.844Z,9.92
2022-10-17T05:41:08.737Z,9.97
2022-10-17T05:43:36.649Z,10.04
2022-10-17T05:46:06.031Z,10.12
2022-10-17T05:48:34.287Z,10.17
2022-10-17T05:51:04.510Z,10.33
2022-10-17T05:53:35.993Z,10.31
2022-10-17T05:56:07.093Z,10.42
2022-10-17T05:58:53.251Z,10.64
2022-10-17T06:01:24.408Z,10.91
2022-10-17T06:03:52.220Z,10.93
2022-10-17T06:06:20.646Z,11.05
2022-10-17T06:08:49.850Z,11.06
2022-10-17T06:11:17.889Z,11.10
2022-10-17T06:13:45.658Z,11.17
2022-10-17T06:16:13.878Z,11.39
2022-10-17T06:18:41.648Z,11.59
2022-10-17T06:21:11.389Z,11.86
2022-10-17T06:23:39.449Z,12.16
2022-10-17T06:26:08.757Z,12.32
2022-10-17T06:28:37.483Z,12.44
2022-10-17T06:31:07.217Z,12.61
2022-10-17T06:33:35.518Z,12.82
2022-10-17T06:36:04.056Z,12.89
2022-10-17T06:38:31.979Z,13.02
2022-10-17T06:41:08.170Z,13.09
2022-10-17T06:43:38.047Z,13.20
2022-10-17T07:13:18.242Z,13.71
2022-10-17T07:20:56.373Z,14.16
2022-10-17T07:23:24.809Z,14.37
2022-10-17T07:36:42.439Z,14.92
2022-10-17T07:39:10.674Z,15.23
2022-10-17T07:41:38.462Z,15.37
2022-10-17T07:44:06.771Z,15.50
2022-10-17T07:46:34.672Z,15.81
2022-10-17T07:49:02.741Z,15.81
2022-10-17T07:51:30.455Z,15.99
2022-10-17T07:53:59.743Z,16.19
2022-10-17T07:56:29.513Z,16.32
2022-10-17T07:58:59.852Z,16.40
2022-10-17T08:01:30.518Z,16.31
2022-10-17T08:03:58.720Z,16.64
2022-10-17T08:06:26.446Z,16.68
2022-10-17T08:08:54.414Z,16.87
2022-10-17T08:11:25.259Z,17.12
2022-10-17T08:13:53.426Z,17.40
2022-10-17T08:16:21.283Z,17.52
2022-10-17T08:18:49.162Z,17.61
2022-10-17T08:21:16.878Z,17.85
2022-10-17T08:23:44.965Z,17.87
2022-10-17T08:26:16.788Z,18.03
2022-10-17T08:28:45.943Z,18.29
2022-10-17T08:31:16.053Z,18.31
2022-10-17T08:33:43.957Z,18.55
2022-10-17T08:36:14.987Z,18.66
2022-10-17T08:38:43.894Z,18.82
2022-10-17T08:41:20.036Z,19.03
2022-10-17T08:44:04.112Z,19.29
2022-10-17T08:46:35.237Z,19.31
2022-10-17T08:49:12.049Z,19.52
2022-10-17T08:51:48.623Z,19.66
2022-10-17T08:54:20.923Z,19.65
2022-10-17T08:56:50.496Z,19.82
2022-10-17T08:59:24.413Z,19.79
2022-10-17T09:02:01.619Z,19.87
2022-10-17T09:04:48.741Z,20.04
2022-10-17T09:07:23.286Z,20.21
2022-10-17T09:10:01.557Z,20.29
2022-10-17T09:12:39.546Z,20.52
2022-10-17T09:15:32.435Z,20.29
2022-10-17T09:18:04.207Z,20.52
2022-10-17T09:20:34.902Z,20.75
2022-10-17T09:23:07.890Z,20.85
2022-10-17T09:25:43.574Z,21.08
2022-10-17T09:28:18.252Z,20.97
2022-10-17T09:30:50.411Z,21.16
2022-10-17T09:33:34.746Z,21.33
2022-10-17T09:36:05.951Z,21.45
2022-10-17T09:38:39.737Z,21.69
2022-10-17T09:41:43.053Z,21.89
2022-10-17T09:44:15.546Z,22.18
2022-10-17T09:46:54.626Z,22.26
2022-10-17T09:49:29.942Z,22.36
2022-10-17T09:51:58.529Z,22.39
2022-10-17T09:54:30.672Z,22.54
2022-10-17T09:57:00.904Z,22.75
2022-10-17T09:59:34.900Z,23.17
2022-10-17T10:02:15.194Z,23.32
2022-10-17T10:05:09.577Z,23.59
2022-10-17T10:07:39.628Z,23.80
2022-10-17T10:10:24.305Z,23.86
2022-10-17T10:13:05.336Z,23.89
2022-10-17T10:15:36.988Z,24.29
2022-10-17T10:21:09.386Z,24.81
2022-10-17T10:23:40.466Z,24.41
2022-10-17T10:26:22.731Z,25.04
2022-10-17T10:28:55.961Z,25.34
2022-10-17T10:31:30.159Z,25.54
2022-10-17T10:34:02.821Z,25.68
2022-10-17T10:36:50.602Z,25.74
2022-10-17T10:39:33.917Z,26.08
2022-10-17T10:42:03.546Z,26.40
2022-10-17T10:44:34.033Z,26.52
2022-10-17T10:47:10.261Z,26.51
2022-10-17T10:49:40.521Z,26.60
2022-10-17T10:52:14.964Z,26.96
2022-10-17T10:54:51.721Z,27.00
2022-10-17T10:57:24.133Z,26.96
2022-10-17T10:59:58.994Z,27.13
2022-10-17T11:02:31.661Z,27.31
2022-10-17T11:05:05.049Z,26.92
2022-10-17T11:07:37.254Z,26.85
2022-10-17T11:10:15.508Z,26.86
2022-10-17T11:12:47.640Z,26.85
2022-10-17T11:15:21.582Z,26.92
2022-10-17T11:17:58.365Z,27.19
2022-10-17T11:20:37.669Z,27.09
2022-10-17T11:23:19.874Z,27.26
2022-10-17T11:25:50.990Z,27.50
2022-10-17T11:28:20.964Z,27.33
2022-10-17T11:30:52.680Z,27.35
2022-10-17T11:33:26.439Z,27.03
2022-10-17T11:36:02.106Z,27.00
2022-10-17T11:38:41.937Z,27.15
2022-10-17T11:41:13.872Z,27.42
2022-10-17T11:43:46.974Z,27.39
2022-10-17T11:46:19.948Z,27.40
2022-10-17T11:48:58.403Z,27.44
2022-10-17T11:54:19.915Z,27.65
2022-10-17T11:56:59.819Z,27.31
2022-10-17T11:59:54.435Z,27.26
2022-10-17T12:02:33.941Z,27.04
2022-10-17T12:05:10.518Z,27.09
2022-10-17T12:07:46.323Z,27.16
2022-10-17T12:10:30.737Z,27.23
2022-10-17T12:12:58.730Z,27.10
2022-10-17T12:15:31.398Z,25.91
2022-10-17T12:18:02.584Z,26.25
2022-10-17T12:20:36.369Z,26.23
2022-10-17T12:23:24.983Z,26.35
2022-10-17T12:25:57.004Z,26.09
2022-10-17T12:28:31.495Z,25.96
2022-10-17T12:31:00.995Z,25.83
2022-10-17T12:33:35.492Z,25.58
2022-10-17T12:36:46.759Z,25.53
2022-10-17T12:39:49.237Z,25.69
2022-10-17T12:42:34.478Z,25.38
2022-10-17T12:45:02.545Z,25.37
2022-10-17T12:47:39.890Z,25.22
2022-10-17T12:50:41.988Z,25.29
2022-10-17T12:53:19.228Z,25.09
2022-10-17T12:55:51.790Z,25.05
2022-10-17T12:58:19.685Z,24.92
2022-10-17T13:01:19.093Z,24.91
2022-10-17T13:03:45.182Z,24.76
2022-10-17T13:06:21.761Z,24.65
2022-10-17T13:09:01.030Z,24.59
2022-10-17T13:11:35.625Z,24.57
2022-10-17T13:14:11.669Z,24.37
2022-10-17T13:16:41.970Z,24.31
2022-10-17T13:19:16.548Z,24.28
2022-10-17T13:21:51.354Z,24.11
2022-10-17T13:24:24.275Z,24.11
2022-10-17T13:26:53.666Z,23.91
2022-10-17T13:29:23.399Z,23.82
2022-10-17T13:31:54.693Z,23.74
2022-10-17T13:34:24.751Z,23.70
2022-10-17T13:36:55.129Z,23.59
2022-10-17T13:39:38.229Z,23.62
2022-10-17T13:42:24.349Z,23.47
2022-10-17T13:44:52.957Z,23.50
2022-10-17T13:47:25.743Z,23.48
2022-10-17T13:49:55.619Z,23.49
2022-10-17T13:52:28.078Z,23.50
2022-10-17T13:55:06.789Z,23.42
2022-10-17T13:57:36.238Z,23.53
2022-10-17T14:00:11.491Z,23.59
2022-10-17T14:02:42.309Z,23.52
2022-10-17T14:05:19.024Z,23.54
2022-10-17T14:08:10.655Z,23.56
2022-10-17T14:10:41.343Z,23.55
2022-10-17T14:13:21.063Z,23.51
2022-10-17T14:15:56.022Z,23.50
2022-10-17T14:18:30.878Z,23.48
2022-10-17T14:23:53.843Z,23.59
2022-10-17T14:26:23.945Z,23.51
2022-10-17T14:29:05.902Z,23.63
2022-10-17T14:31:35.960Z,23.73
2022-10-17T14:34:05.921Z,23.71
2022-10-17T14:36:43.062Z,23.80
2022-10-17T14:39:21.316Z,23.96
2022-10-17T14:41:49.598Z,24.02
2022-10-17T14:44:25.595Z,24.14
2022-10-17T14:47:05.954Z,24.18
2022-10-17T14:49:41.997Z,24.29
2022-10-17T14:52:24.764Z,24.39
2022-10-17T14:54:53.188Z,24.39
2022-10-17T14:57:25.390Z,24.45
2022-10-17T14:59:56.155Z,24.56
2022-10-17T15:02:25.544Z,24.62
2022-10-17T15:04:53.679Z,24.60
2022-10-17T15:07:22.143Z,24.57
2022-10-17T15:09:53.513Z,24.55
2022-10-17T15:12:23.480Z,24.58
2022-10-17T15:14:52.545Z,24.52
2022-10-17T15:17:25.370Z,24.38
2022-10-17T15:19:54.140Z,24.32
2022-10-17T15:22:22.079Z,24.08
2022-10-17T15:24:50.089Z,23.72
2022-10-17T15:27:20.415Z,23.46
2022-10-17T15:29:49.486Z,23.18
2022-10-17T15:32:17.436Z,22.81
2022-10-17T15:34:47.168Z,22.51
2022-10-17T15:37:18.911Z,22.37
2022-10-17T15:39:53.368Z,22.19
2022-10-17T15:42:23.496Z,22.00
2022-10-17T15:44:51.496Z,21.98
2022-10-17T15:47:26.234Z,21.65
2022-10-17T15:49:56.428Z,21.22
2022-10-17T15:52:24.622Z,21.13
2022-10-17T15:54:52.924Z,20.76
2022-10-17T15:57:23.598Z,20.35
2022-10-17T15:59:52.626Z,20.31
2022-10-17T16:02:21.782Z,20.39
2022-10-17T16:04:51.084Z,20.38
2022-10-17T16:07:21.331Z,20.35
2022-10-17T16:09:49.366Z,20.15
2022-10-17T16:12:19.107Z,19.87
2022-10-17T16:14:47.116Z,19.99
2022-10-17T16:17:16.297Z,19.83
2022-10-17T16:19:44.854Z,19.81
2022-10-17T16:22:28.227Z,19.50
2022-10-17T16:24:59.092Z,19.33
2022-10-17T16:27:27.174Z,19.26
2022-10-17T16:29:55.051Z,19.45
2022-10-17T16:32:22.898Z,19.45
2022-10-17T16:34:50.758Z,19.31
2022-10-17T16:37:19.893Z,19.08
2022-10-17T16:39:52.203Z,18.89
2022-10-17T16:42:20.104Z,18.88
2022-10-17T16:44:48.178Z,18.79
2022-10-17T16:47:16.435Z,18.65
2022-10-17T16:49:45.362Z,18.59
2022-10-17T16:52:13.971Z,18.57
2022-10-17T16:54:43.474Z,18.54
2022-10-17T16:57:11.362Z,18.44
2022-10-17T16:59:39.553Z,18.50
2022-10-17T17:02:07.666Z,18.29
2022-10-17T17:04:35.610Z,18.08
2022-10-17T17:07:03.549Z,17.64
2022-10-17T17:09:31.476Z,17.37
2022-10-17T17:12:00.581Z,17.16
2022-10-17T17:14:28.726Z,17.13
2022-10-17T17:16:56.517Z,17.18
2022-10-17T17:19:24.439Z,17.01
2022-10-17T17:21:52.351Z,16.95
2022-10-17T17:24:21.952Z,16.67
2022-10-17T17:26:52.439Z,16.58
2022-10-17T17:29:22.792Z,16.62
2022-10-17T17:31:51.012Z,16.47
2022-10-17T17:34:18.920Z,16.46
2022-10-17T17:36:47.257Z,16.54
2022-10-17T17:39:16.655Z,16.77
2022-10-17T17:41:45.567Z,16.94
2022-10-17T17:44:16.747Z,17.04
2022-10-17T17:46:46.681Z,17.06
2022-10-17T17:49:15.394Z,17.02
2022-10-17T17:51:46.378Z,17.04
2022-10-17T17:54:14.854Z,17.02
2022-10-17T17:56:43.000Z,16.98
2022-10-17T17:59:12.737Z,16.97
2022-10-17T18:01:40.707Z,16.79
2022-10-17T18:04:10.729Z,16.67
2022-10-17T18:06:39.825Z,16.69
2022-10-17T18:09:09.010Z,16.69
2022-10-17T18:11:38.065Z,16.52
2022-10-17T18:14:08.566Z,16.69
2022-10-17T18:16:37.568Z,16.67
2022-10-17T18:19:08.785Z,16.62
2022-10-17T18:21:38.923Z,16.65
2022-10-17T18:24:07.475Z,16.63
2022-10-17T18:26:35.705Z,16.66
2022-10-17T18:29:04.623Z,16.59
2022-10-17T18:31:35.633Z,16.44
2022-10-17T18:34:05.276Z,16.31
2022-10-17T18:36:34.856Z,16.17
2022-10-17T18:39:05.646Z,16.11
2022-10-17T18:41:33.986Z,16.07
2022-10-17T18:44:02.864Z,16.08
2022-10-17T18:46:35.601Z,15.88
2022-10-17T18:49:04.365Z,15.74
2022-10-17T18:51:32.993Z,15.56
2022-10-17T18:54:02.581Z,15.48
2022-10-17T18:56:32.768Z,15.38
2022-10-17T18:59:00.679Z,15.23
2022-10-17T19:01:29.203Z,15.04
2022-10-17T19:03:59.467Z,14.92
2022-10-17T19:06:28.880Z,14.66
2022-10-17T19:08:56.907Z,14.52
2022-10-17T19:11:26.762Z,14.38
2022-10-17T19:13:58.073Z,14.23
2022-10-17T19:16:30.035Z,14.00
2022-10-17T19:18:59.824Z,13.86
2022-10-17T19:21:28.147Z,13.96
2022-10-17T19:23:58.576Z,14.01
2022-10-17T19:26:27.972Z,14.06
2022-10-17T19:28:57.369Z,14.10
2022-10-17T19:31:27.396Z,14.06
2022-10-17T19:33:56.387Z,14.10
2022-10-17T19:36:29.056Z,14.10
2022-10-17T19:39:01.440Z,13.96
2022-10-17T19:41:29.422Z,13.92
2022-10-17T19:43:58.979Z,13.96
2022-10-17T19:46:28.307Z,13.73
2022-10-17T19:48:56.842Z,13.68
2022-10-17T19:51:26.218Z,13.78
2022-10-17T19:53:56.234Z,13.77
2022-10-17T19:56:25.639Z,13.85
2022-10-17T19:58:55.641Z,13.93
2022-10-17T20:01:26.674Z,13.96
2022-10-17T20:03:55.169Z,14.19
2022-10-17T20:06:23.373Z,14.19
2022-10-17T20:08:51.657Z,14.09
2022-10-17T20:11:21.813Z,14.17
2022-10-17T20:13:50.606Z,14.26
2022-10-17T20:16:21.436Z,14.65
2022-10-17T20:18:51.893Z,14.68
2022-10-17T20:21:23.370Z,14.71
2022-10-17T20:23:51.597Z,14.75
2022-10-17T20:26:38.670Z,14.86
2022-10-17T20:29:11.083Z,14.90
2022-10-17T20:31:40.112Z,14.81
2022-10-17T20:34:12.509Z,14.85
2022-10-17T20:36:40.077Z,14.68
2022-10-17T20:39:08.917Z,14.57
2022-10-17T20:41:37.116Z,14.51
2022-10-17T20:44:06.765Z,14.36
2022-10-17T20:46:37.655Z,14.31
2022-10-17T20:49:07.772Z,14.45
2022-10-17T20:51:36.901Z,14.66
2022-10-17T20:54:05.701Z,14.73
2022-10-17T20:56:35.290Z,14.62
2022-10-17T20:59:05.709Z,14.57
2022-10-17T21:01:36.144Z,14.48
2022-10-17T21:06:54.462Z,14.38
2022-10-17T21:09:22.865Z,14.22
2022-10-17T21:11:54.886Z,14.25
2022-10-17T21:14:24.117Z,14.08
2022-10-17T21:16:53.050Z,14.00
2022-10-17T21:19:22.270Z,14.09
2022-10-17T21:21:50.845Z,13.86
2022-10-17T21:24:20.835Z,13.84
2022-10-17T21:26:55.365Z,13.68
2022-10-17T21:29:24.637Z,13.65
2022-10-17T21:31:52.476Z,13.48
2022-10-17T21:34:22.105Z,13.33
2022-10-17T21:36:50.405Z,13.37
2022-10-17T21:39:20.054Z,13.29
2022-10-17T21:41:47.766Z,13.10
2022-10-17T21:44:17.845Z,13.15
2022-10-17T21:46:46.285Z,13.02
2022-10-17T21:49:16.386Z,12.96
2022-10-17T21:51:45.194Z,12.99
2022-10-17T21:54:13.304Z,12.98
2022-10-17T21:56:42.593Z,12.96
2022-10-17T21:59:11.763Z,12.96
2022-10-17T22:01:41.196Z,12.97
2022-10-17T22:04:13.160Z,12.97
2022-10-17T22:06:43.028Z,12.96
2022-10-17T22:09:14.146Z,12.89
2022-10-17T22:11:46.077Z,12.95
2022-10-17T22:14:15.963Z,13.05
2022-10-17T22:16:44.984Z,12.97
2022-10-17T22:19:14.341Z,12.79
2022-10-17T22:21:42.264Z,12.72
2022-10-17T22:24:13.771Z,12.75
2022-10-17T22:26:44.481Z,12.79
2022-10-17T22:29:13.513Z,12.73
2022-10-17T22:31:41.670Z,12.73
2022-10-17T22:34:11.345Z,12.69
2022-10-17T22:36:39.192Z,12.60
2022-10-17T22:39:07.473Z,12.49
2022-10-17T22:41:35.236Z,12.49
2022-10-17T22:44:05.330Z,12.55
2022-10-17T22:46:33.574Z,12.60
2022-10-17T22:49:01.568Z,12.70
2022-10-17T22:51:29.677Z,12.77
2022-10-17T22:53:57.741Z,12.93
2022-10-17T22:56:25.840Z,12.90
2022-10-17T22:58:54.025Z,12.98
2022-10-17T23:01:24.927Z,12.91
2022-10-17T23:03:53.925Z,12.81
2022-10-17T23:06:22.125Z,12.68
2022-10-17T23:08:50.543Z,12.67
2022-10-17T23:11:18.682Z,12.66
2022-10-17T23:13:46.660Z,12.81
2022-10-17T23:16:14.720Z,12.80
2022-10-17T23:18:44.615Z,12.94
2022-10-17T23:21:12.890Z,13.09
2022-10-17T23:23:40.824Z,13.09
2022-10-17T23:26:10.798Z,12.99
2022-10-17T23:28:39.454Z,12.48
2022-10-17T23:31:15.442Z,12.30
2022-10-17T23:33:46.581Z,12.21
2022-10-17T23:36:16.053Z,11.99
2022-10-17T23:38:45.581Z,11.87
2022-10-17T23:41:14.126Z,11.91
2022-10-17T23:43:42.111Z,11.87
2022-10-17T23:46:10.177Z,11.87
2022-10-17T23:48:38.895Z,11.85
2022-10-17T23:51:08.662Z,11.88
2022-10-17T23:53:37.088Z,11.92
2022-10-17T23:56:05.849Z,11.92
2022-10-17T23:58:33.773Z,11.73
